| Date | Time | Temp. (oF) | Dew Point (oF) | Rel. Hum. (%) | Press. (in.) | Wind Dir. | Wind Speed (mph) | Hourly Rainfall (in.) |
|
|---|---|---|---|---|---|---|---|---|---|
| 1 | 09/12 | 00:00 | 66 | 45 | 47 | 29.91 | NNW | 5 | 0.00 |
| 2 | 09/11 | 23:00 | 66 | 45 | 47 | 29.88 | NNW | 4 | 0.00 |
| 3 | 09/11 | 22:00 | 67 | 45 | 46 | 29.86 | NNW | 4 | 0.00 |
| 4 | 09/11 | 21:00 | 70 | 45 | 41 | 29.83 | NNW | 4 | 0.00 |
| 5 | 09/11 | 20:00 | 72 | 44 | 37 | 29.78 | NNW | 7 | 0.00 |
| 6 | 09/11 | 19:00 | 75 | 44 | 34 | 29.74 | WNW | 6 | 0.00 |
| 7 | 09/11 | 18:00 | 77 | 44 | 32 | 29.70 | WNW | 4 | 0.00 |
| 8 | 09/11 | 17:00 | 78 | 46 | 33 | 29.69 | W | 11 | 0.00 |
| 9 | 09/11 | 16:00 | 77 | 45 | 33 | 29.69 | WNW | 5 | 0.00 |
| 10 | 09/11 | 15:00 | 76 | 46 | 36 | 29.69 | NW | 13 | 0.00 |
| 11 | 09/11 | 14:00 | 74 | 49 | 42 | 29.69 | NW | 8 | 0.00 |
| 12 | 09/11 | 13:00 | 75 | 50 | 43 | 29.65 | NW | 10 | 0.00 |
| 13 | 09/11 | 12:00 | 76 | 51 | 42 | 29.63 | N | 14 | 0.00 |
| 14 | 09/11 | 11:00 | 77 | 52 | 43 | 29.61 | NW | 16 | 0.00 |
| 15 | 09/11 | 10:00 | 77 | 53 | 45 | 29.58 | NNW | 19 | 0.00 |
| 16 | 09/11 | 09:00 | 77 | 60 | 58 | 29.55 | N | 4 | 0.00 |
| 17 | 09/11 | 08:00 | 75 | 63 | 67 | 29.55 | WNW | 2 | 0.00 |
| 18 | 09/11 | 07:00 | 73 | 62 | 69 | 29.55 | WNW | 4 | 0.00 |
| 19 | 09/11 | 06:00 | 68 | 60 | 78 | 29.54 | WSW | 2 | 0.00 |
| 20 | 09/11 | 05:00 | 69 | 61 | 76 | 29.53 | WSW | 1 | 0.00 |
| 21 | 09/11 | 04:00 | 68 | 60 | 76 | 29.54 | WSW | 3 | 0.00 |
| 22 | 09/11 | 03:00 | 67 | 63 | 90 | 29.56 | SW | 0 | 0.00 |
| 23 | 09/11 | 02:00 | 68 | 63 | 87 | 29.58 | WSW | 2 | 0.00 |
| 24 | 09/11 | 01:00 | 70 | 65 | 86 | 29.60 | WNW | 2 | 0.00 |